Time;durP1;ratioP1;P1;durP2;ratioP2;P2;SDS_P1;SDS_P2;PMS_P1;PMS_P2;Temp;Humidity;BMP_temperature;BMP_pressure;BME280_temperature;BME280_humidity;BME280_pressure;Samples;Min_cycle;Max_cycle;Signal;HPM_P1;HPM_P2
2022/10/29 00:20:40;;;;;;;6.68;2.10;;;14.90;99.90;;;;;;6348273;22;20029;-95
2022/10/29 00:23:06;;;;;;;6.28;2.15;;;14.90;99.90;;;;;;6303194;22;20022;-96
2022/10/29 00:25:31;;;;;;;6.25;1.70;;;14.90;99.90;;;;;;6290564;22;20394;-95
2022/10/29 00:27:57;;;;;;;7.18;1.98;;;14.90;99.90;;;;;;6290698;22;20023;-95
2022/10/29 00:40:44;;;;;;;6.32;1.90;;;14.70;99.90;;;;;;6348578;22;20029;-95
2022/10/29 00:54:35;;;;;;;4.45;1.40;;;14.30;99.90;;;;;;6342678;22;20019;-95
2022/10/29 00:57:09;;;;;;;3.80;1.42;;;14.10;99.90;;;;;;6295065;22;20105;-94
2022/10/29 00:59:35;;;;;;;6.60;1.85;;;14.00;99.90;;;;;;6295416;22;20111;-95
2022/10/29 03:49:01;;;;;;;5.55;2.47;;;13.90;99.90;;;;;;6278281;22;20452;-92
2022/10/29 03:51:27;;;;;;;4.55;1.98;;;13.90;99.90;;;;;;6288113;22;20022;-96
2022/10/29 03:54:43;;;;;;;;;;;;;;;;;;;;;
2022/10/29 09:01:00;;;;;;;13.10;4.72;;;14.40;99.90;;;;;;6280210;22;20126;-96
2022/10/29 09:03:39;;;;;;;16.17;5.50;;;14.50;99.90;;;;;;6286186;22;20048;-95
2022/10/29 18:12:07;;;;;;;10.32;5.68;;;16.00;99.90;;;;;;6170891;22;20027;-94
2022/10/29 18:14:33;;;;;;;9.13;5.10;;;15.90;99.90;;;;;;6251618;22;20024;-93
2022/10/29 18:17:20;;;;;;;12.00;5.57;;;15.90;99.90;;;;;;6201863;22;20015;-94
2022/10/29 19:26:22;;;;;;;10.07;5.30;;;15.60;99.90;;;;;;6235643;22;20027;-95
2022/10/29 19:28:47;;;;;;;11.57;5.03;;;15.60;99.90;;;;;;6287558;22;20539;-95
2022/10/29 19:31:16;;;;;;;12.23;4.63;;;15.60;99.90;;;;;;6235266;22;20050;-95
2022/10/29 19:33:47;;;;;;;9.85;4.57;;;15.60;99.90;;;;;;6287059;22;20029;-95
2022/10/29 20:13:35;;;;;;;9.27;4.40;;;15.30;99.90;;;;;;6348593;22;20033;-95
2022/10/29 20:16:07;;;;;;;12.95;4.63;;;15.30;99.90;;;;;;6287495;22;20015;-91
2022/10/29 20:22:31;;;;;;;9.65;4.57;;;15.30;99.90;;;;;;6295703;22;20019;-94
2022/10/29 20:24:57;;;;;;;8.45;4.15;;;15.20;99.90;;;;;;6290210;22;20021;-92
2022/10/29 20:27:23;;;;;;;10.68;4.50;;;15.20;99.90;;;;;;6262078;22;20042;-95
2022/10/29 20:29:48;;;;;;;10.05;5.30;;;15.20;99.90;;;;;;6286501;22;20473;-91
2022/10/29 20:32:14;;;;;;;10.55;5.10;;;15.20;99.90;;;;;;6287088;22;20015;-93
2022/10/29 20:35:21;;;;;;;9.98;5.45;;;15.20;99.90;;;;;;6287823;22;20025;-93
2022/10/29 20:38:48;;;;;;;9.57;5.28;;;15.10;99.90;;;;;;6286655;22;20015;-95
2022/10/29 20:49:00;;;;;;;11.50;5.45;;;14.70;99.90;;;;;;6319700;22;20019;-93
2022/10/29 20:51:42;;;;;;;10.68;4.50;;;14.60;99.90;;;;;;6161012;23;20027;-91
2022/10/29 20:54:07;;;;;;;11.57;5.05;;;14.60;99.90;;;;;;6185884;23;20021;-93
2022/10/29 20:56:33;;;;;;;10.43;5.13;;;14.60;99.90;;;;;;6161375;23;20035;-92
2022/10/29 21:02:33;;;;;;;10.20;4.55;;;14.50;99.90;;;;;;6155669;23;20116;-94
2022/10/29 21:04:59;;;;;;;10.77;4.72;;;14.40;99.90;;;;;;6136629;22;20040;-94
2022/10/29 21:07:24;;;;;;;9.75;4.35;;;14.30;99.90;;;;;;6161087;23;20453;-95
2022/10/29 21:09:50;;;;;;;9.60;5.38;;;14.30;99.90;;;;;;6162114;23;20447;-91
2022/10/29 21:12:16;;;;;;;9.18;4.95;;;14.30;99.90;;;;;;6139465;22;20145;-93
2022/10/29 21:15:17;;;;;;;10.32;5.10;;;14.30;99.90;;;;;;6137169;22;20027;-94
2022/10/29 21:51:23;;;;;;;12.82;5.15;;;14.40;99.90;;;;;;6158135;23;20342;-94
2022/10/29 21:53:48;;;;;;;9.15;4.93;;;14.50;99.90;;;;;;6083813;23;20021;-94
2022/10/29 21:56:15;;;;;;;12.75;5.35;;;14.50;99.90;;;;;;6123831;23;20080;-94
2022/10/29 21:58:41;;;;;;;10.15;5.50;;;14.50;99.90;;;;;;6157159;22;20017;-95
2022/10/29 22:01:10;;;;;;;9.38;5.63;;;14.50;99.90;;;;;;6144288;23;20461;-95
2022/10/29 22:03:37;;;;;;;10.48;5.35;;;14.50;99.90;;;;;;6132652;23;20431;-95
2022/10/29 22:06:05;;;;;;;11.23;5.40;;;14.50;99.90;;;;;;6132262;23;20029;-93
2022/10/29 22:08:31;;;;;;;12.63;5.43;;;14.50;99.90;;;;;;6132023;23;20013;-95
2022/10/29 22:10:58;;;;;;;13.02;4.95;;;14.50;99.90;;;;;;6132263;23;20134;-94
2022/10/29 22:13:23;;;;;;;8.65;5.13;;;14.50;99.90;;;;;;6131980;23;20059;-94
2022/10/29 22:15:49;;;;;;;9.27;4.63;;;14.50;99.90;;;;;;6132509;23;20013;-94
2022/10/29 22:23:48;;;;;;;9.60;5.25;;;14.50;99.90;;;;;;6220353;22;20442;-93
2022/10/29 22:26:17;;;;;;;12.68;5.40;;;14.40;99.90;;;;;;6288042;22;20463;-92
2022/10/29 22:28:45;;;;;;;9.35;4.10;;;14.40;99.90;;;;;;6287955;22;20011;-92
2022/10/29 22:31:13;;;;;;;11.02;5.03;;;14.40;99.90;;;;;;6287581;22;20014;-92
2022/10/29 22:33:41;;;;;;;9.10;4.85;;;14.40;99.90;;;;;;6288083;22;20029;-93
2022/10/29 22:40:11;;;;;;;9.63;4.57;;;14.20;99.90;;;;;;6341365;22;20014;-94
2022/10/29 22:42:37;;;;;;;11.68;5.20;;;14.20;99.90;;;;;;6287507;22;20463;-93
2022/10/29 22:45:03;;;;;;;12.27;4.93;;;14.10;99.90;;;;;;6262263;22;20018;-94
2022/10/29 22:47:29;;;;;;;;;;;14.00;99.90;;;;;;6263052;22;20336;-94
2022/10/29 22:50:18;;;;;;;9.50;4.25;;;14.00;99.90;;;;;;6287766;22;19914;-94
2022/10/29 22:52:44;;;;;;;8.95;4.50;;;14.00;99.90;;;;;;6287488;22;20038;-95
2022/10/29 22:55:10;;;;;;;11.70;4.63;;;14.00;99.90;;;;;;6288022;22;20083;-94
2022/10/29 22:57:35;;;;;;;9.90;5.40;;;14.00;99.90;;;;;;6288071;22;20017;-95
2022/10/29 23:00:01;;;;;;;10.23;4.85;;;14.00;99.90;;;;;;6287920;22;20245;-96
2022/10/29 23:06:47;;;;;;;;;;;;;;;;;;;;;
2022/10/29 23:12:22;;;;;;;;;;;;;;;;;;;;;
2022/10/29 23:15:14;;;;;;;;;;;;;;;;;;;;;
2022/10/29 23:21:48;;;;;;;9.00;4.18;;;13.90;99.90;;;;;;6265831;22;20030;-94
2022/10/29 23:30:46;;;;;;;8.52;4.57;;;13.80;99.90;;;;;;6137184;23;20144;-95
2022/10/29 23:33:52;;;;;;;10.70;4.80;;;13.80;99.90;;;;;;6164540;23;20025;-94
2022/10/29 23:36:58;;;;;;;;;;;;;;;;;;;;;
2022/10/29 23:39:55;;;;;;;;;;;;;;;;;;;;;
2022/10/29 23:42:23;;;;;;;9.82;4.38;;;13.70;99.90;;;;;;6176316;23;20031;-93
2022/10/29 23:44:49;;;;;;;10.60;4.40;;;13.70;99.90;;;;;;6161871;23;20009;-93
2022/10/29 23:47:15;;;;;;;9.70;4.90;;;13.70;99.90;;;;;;6161934;23;20020;-92
2022/10/29 23:49:40;;;;;;;8.50;4.60;;;13.70;99.90;;;;;;6161398;23;20634;-93
